createdAt,value
2023-07-08T00:01:21.808Z,36.68
2023-07-08T00:03:49.959Z,36.62
2023-07-08T00:06:28.624Z,36.73
2023-07-08T00:08:56.576Z,36.32
2023-07-08T00:11:24.400Z,36.64
2023-07-08T00:13:51.312Z,36.74
2023-07-08T00:16:20.393Z,36.79
2023-07-08T00:18:49.805Z,36.68
2023-07-08T00:21:18.577Z,36.57
2023-07-08T00:23:51.343Z,36.70
2023-07-08T00:26:27.924Z,36.68
2023-07-08T00:28:55.624Z,36.20
2023-07-08T00:31:25.703Z,36.45
2023-07-08T00:33:58.680Z,36.24
2023-07-08T00:36:28.625Z,36.06
2023-07-08T00:38:56.515Z,36.14
2023-07-08T00:41:39.953Z,36.52
2023-07-08T00:44:08.604Z,36.17
2023-07-08T00:46:51.827Z,36.25
2023-07-08T00:49:32.710Z,36.43
2023-07-08T00:52:24.920Z,36.10
2023-07-08T00:55:00.568Z,36.08
2023-07-08T00:57:36.374Z,36.20
2023-07-08T01:00:11.595Z,35.87
2023-07-08T01:02:49.805Z,35.91
2023-07-08T01:05:28.232Z,35.80
2023-07-08T01:08:04.205Z,36.10
2023-07-08T01:10:40.178Z,36.25
2023-07-08T01:13:11.385Z,36.10
2023-07-08T01:15:44.905Z,36.26
2023-07-08T01:18:17.680Z,36.03
2023-07-08T01:20:44.934Z,35.74
2023-07-08T01:23:13.024Z,36.12
2023-07-08T01:25:43.903Z,36.20
2023-07-08T01:28:11.650Z,35.92
2023-07-08T01:30:38.970Z,36.22
2023-07-08T01:33:17.453Z,36.30
2023-07-08T01:35:46.698Z,36.03
2023-07-08T01:38:17.513Z,35.99
2023-07-08T01:40:57.603Z,35.92
2023-07-08T01:43:24.879Z,35.96
2023-07-08T01:45:53.608Z,36.13
2023-07-08T01:48:25.299Z,35.89
2023-07-08T01:51:08.195Z,35.99
2023-07-08T01:53:42.720Z,35.89
2023-07-08T01:56:12.418Z,36.00
2023-07-08T01:58:40.383Z,36.02
2023-07-08T02:01:08.655Z,36.09
2023-07-08T02:03:36.846Z,36.09
2023-07-08T02:06:05.180Z,35.84
2023-07-08T02:08:32.174Z,36.15
2023-07-08T02:11:00.281Z,35.90
2023-07-08T02:13:27.878Z,35.98
2023-07-08T02:15:54.896Z,36.07
2023-07-08T02:18:22.041Z,36.23
2023-07-08T02:20:48.997Z,36.15
2023-07-08T02:23:16.773Z,35.96
2023-07-08T02:25:53.145Z,36.14
2023-07-08T02:28:20.623Z,35.90
2023-07-08T02:30:47.574Z,35.86
2023-07-08T02:33:18.726Z,36.15
2023-07-08T02:35:46.720Z,35.98
2023-07-08T02:38:14.658Z,36.14
2023-07-08T02:40:41.605Z,35.93
2023-07-08T02:43:09.076Z,35.89
2023-07-08T02:45:37.314Z,36.10
2023-07-08T02:48:04.433Z,35.92
2023-07-08T02:50:32.721Z,35.63
2023-07-08T02:52:59.603Z,35.92
2023-07-08T02:55:26.493Z,35.90
2023-07-08T02:57:53.445Z,36.18
2023-07-08T03:00:20.507Z,35.86
2023-07-08T03:02:47.506Z,36.10
2023-07-08T03:05:14.605Z,35.85
2023-07-08T03:07:41.526Z,35.98
2023-07-08T03:10:08.945Z,36.17
2023-07-08T03:12:35.885Z,35.97
2023-07-08T03:15:04.149Z,36.11
2023-07-08T03:17:31.124Z,36.03
2023-07-08T03:19:58.059Z,35.99
2023-07-08T03:22:25.001Z,35.82
2023-07-08T03:24:51.914Z,36.03
2023-07-08T03:27:22.352Z,36.11
2023-07-08T03:29:51.167Z,36.00
2023-07-08T03:32:18.094Z,35.96
2023-07-08T03:34:44.961Z,35.79
2023-07-08T03:37:11.874Z,35.80
2023-07-08T03:39:38.855Z,36.09
2023-07-08T03:42:06.453Z,35.78
2023-07-08T03:44:33.674Z,35.80
2023-07-08T03:47:00.679Z,36.02
2023-07-08T03:49:27.915Z,35.88
2023-07-08T03:51:56.566Z,35.79
2023-07-08T03:54:26.169Z,35.78
2023-07-08T03:56:56.649Z,35.59
2023-07-08T03:59:25.887Z,35.46
2023-07-08T04:01:55.131Z,35.82
2023-07-08T04:04:23.548Z,35.44
2023-07-08T04:06:52.075Z,35.60
2023-07-08T04:09:18.980Z,35.68
2023-07-08T04:11:45.861Z,35.79
2023-07-08T04:14:13.155Z,35.85
2023-07-08T04:16:52.496Z,35.51
2023-07-08T04:19:20.705Z,35.60
2023-07-08T04:21:47.817Z,35.82
2023-07-08T04:24:17.755Z,35.52
2023-07-08T04:26:48.900Z,35.79
2023-07-08T04:29:22.334Z,35.55
2023-07-08T04:31:50.090Z,35.41
2023-07-08T04:34:18.307Z,35.63
2023-07-08T04:36:45.752Z,35.44
2023-07-08T04:39:14.349Z,35.58
2023-07-08T04:41:42.754Z,35.52
2023-07-08T04:44:13.097Z,35.45
2023-07-08T04:46:59.839Z,35.76
2023-07-08T04:49:32.696Z,35.64
2023-07-08T04:52:00.600Z,35.44
2023-07-08T04:54:27.463Z,35.89
2023-07-08T04:56:54.438Z,35.76
2023-07-08T04:59:26.777Z,35.82
2023-07-08T05:01:55.125Z,35.69
2023-07-08T05:04:23.691Z,35.82
2023-07-08T05:06:51.178Z,35.82
2023-07-08T05:09:18.680Z,36.05
2023-07-08T05:11:45.932Z,36.11
2023-07-08T05:14:14.345Z,36.08
2023-07-08T05:16:42.047Z,36.10
2023-07-08T05:19:09.376Z,35.84
2023-07-08T05:21:36.395Z,36.04
2023-07-08T05:24:05.899Z,36.18
2023-07-08T05:26:33.901Z,35.89
2023-07-08T05:29:01.602Z,36.13
2023-07-08T05:31:45.545Z,36.18
2023-07-08T05:34:16.205Z,36.01
2023-07-08T05:36:43.989Z,36.28
2023-07-08T05:39:10.954Z,36.27
2023-07-08T05:41:37.930Z,36.15
2023-07-08T05:44:05.077Z,36.03
2023-07-08T05:46:32.078Z,36.21
2023-07-08T05:49:01.464Z,36.24
2023-07-08T05:51:29.257Z,36.13
2023-07-08T05:53:56.171Z,36.30
2023-07-08T05:56:23.114Z,36.28
2023-07-08T05:58:50.074Z,36.29
2023-07-08T06:01:17.012Z,36.50
2023-07-08T06:03:43.948Z,36.58
2023-07-08T06:06:10.848Z,36.33
2023-07-08T06:08:37.746Z,36.62
2023-07-08T06:11:04.691Z,36.31
2023-07-08T06:13:32.213Z,36.69
2023-07-08T06:15:59.986Z,36.46
2023-07-08T06:18:26.890Z,36.69
2023-07-08T06:20:59.353Z,36.63
2023-07-08T06:23:27.006Z,36.40
2023-07-08T06:25:54.275Z,36.52
2023-07-08T06:28:21.643Z,36.66
2023-07-08T06:30:49.465Z,36.75
2023-07-08T06:33:16.717Z,36.64
2023-07-08T06:35:44.421Z,36.58
2023-07-08T06:38:11.984Z,36.71
2023-07-08T06:40:38.897Z,36.76
2023-07-08T06:43:05.816Z,36.96
2023-07-08T06:45:47.941Z,36.93
2023-07-08T06:48:14.845Z,36.50
2023-07-08T06:50:47.306Z,36.73
2023-07-08T06:53:15.731Z,36.88
2023-07-08T06:55:44.890Z,37.04
2023-07-08T06:58:11.892Z,36.88
2023-07-08T07:00:39.248Z,36.78
2023-07-08T07:03:06.230Z,36.69
2023-07-08T07:05:33.315Z,36.76
2023-07-08T07:08:00.255Z,36.98
2023-07-08T07:10:27.450Z,36.91
2023-07-08T07:12:54.356Z,36.79
2023-07-08T07:15:21.425Z,37.13
2023-07-08T07:17:48.500Z,36.72
2023-07-08T07:20:15.792Z,36.91
2023-07-08T07:22:42.795Z,36.75
2023-07-08T07:25:10.628Z,36.80
2023-07-08T07:27:37.599Z,36.69
2023-07-08T07:30:05.141Z,36.70
2023-07-08T07:32:34.020Z,36.87
2023-07-08T07:35:01.251Z,36.73
2023-07-08T07:37:28.285Z,36.78
2023-07-08T07:39:55.143Z,36.63
2023-07-08T07:42:22.083Z,36.91
2023-07-08T07:44:49.060Z,36.91
2023-07-08T07:47:16.060Z,36.79
2023-07-08T07:49:43.111Z,36.90
2023-07-08T07:52:12.156Z,36.96
2023-07-08T07:54:40.630Z,36.84
2023-07-08T07:57:08.354Z,36.85
2023-07-08T07:59:35.421Z,37.09
2023-07-08T08:02:02.353Z,36.92
2023-07-08T08:04:29.294Z,37.08
2023-07-08T08:06:56.188Z,36.87
2023-07-08T08:09:23.139Z,37.05
2023-07-08T08:11:50.744Z,37.17
2023-07-08T08:14:17.655Z,37.07
2023-07-08T08:16:44.601Z,36.91
2023-07-08T08:19:11.514Z,36.82
2023-07-08T08:21:38.648Z,37.18
2023-07-08T08:24:06.368Z,37.23
2023-07-08T08:26:33.261Z,37.03
2023-07-08T08:29:01.668Z,36.90
2023-07-08T08:31:28.619Z,37.16
2023-07-08T08:33:55.589Z,36.92
2023-07-08T08:36:22.517Z,37.20
2023-07-08T08:38:50.041Z,36.82
2023-07-08T08:41:21.821Z,37.13
2023-07-08T08:43:52.803Z,37.32
2023-07-08T08:46:22.641Z,37.16
2023-07-08T08:49:08.246Z,37.07
2023-07-08T08:51:35.246Z,37.23
2023-07-08T08:54:02.990Z,37.21
2023-07-08T08:56:41.760Z,37.43
2023-07-08T08:59:32.460Z,37.91
2023-07-08T09:02:02.106Z,37.78
2023-07-08T09:04:38.107Z,37.77
2023-07-08T09:07:17.644Z,37.64
2023-07-08T09:10:03.696Z,37.84
2023-07-08T09:12:33.249Z,37.76
2023-07-08T09:15:00.406Z,37.88
2023-07-08T09:17:37.659Z,37.55
2023-07-08T09:20:26.239Z,37.82
2023-07-08T09:22:59.935Z,37.52
2023-07-08T09:26:00.566Z,37.78
2023-07-08T09:28:45.944Z,37.42
2023-07-08T09:31:29.863Z,37.64
2023-07-08T09:34:26.580Z,37.13
2023-07-08T09:36:54.567Z,37.39
2023-07-08T09:39:22.118Z,37.67
2023-07-08T09:41:50.661Z,38.19
2023-07-08T09:44:28.044Z,38.39
2023-07-08T09:46:56.939Z,38.31
2023-07-08T09:49:37.385Z,38.57
2023-07-08T09:52:05.988Z,38.45
2023-07-08T09:54:33.803Z,39.00
2023-07-08T09:57:13.696Z,38.77
2023-07-08T09:59:48.423Z,39.09
2023-07-08T10:02:56.201Z,38.41
2023-07-08T10:05:44.733Z,38.81
2023-07-08T10:08:21.884Z,38.62
2023-07-08T10:11:02.772Z,38.57
2023-07-08T10:13:39.916Z,38.48
2023-07-08T10:16:34.714Z,38.40
2023-07-08T10:19:02.941Z,38.62
2023-07-08T10:21:48.254Z,38.41
2023-07-08T10:24:55.446Z,38.76
2023-07-08T10:27:53.658Z,38.18
2023-07-08T10:30:27.229Z,38.36
2023-07-08T10:33:48.034Z,38.33
2023-07-08T10:37:11.308Z,38.55
2023-07-08T10:40:15.461Z,38.78
2023-07-08T10:43:09.328Z,38.29
2023-07-08T10:45:47.418Z,38.80
2023-07-08T10:48:38.364Z,38.81
2023-07-08T10:51:33.206Z,38.59
2023-07-08T10:54:38.931Z,39.03
2023-07-08T10:57:26.561Z,38.72
2023-07-08T11:00:39.393Z,39.06
2023-07-08T11:03:43.010Z,39.03
2023-07-08T11:06:23.858Z,39.37
2023-07-08T11:09:00.985Z,39.52
2023-07-08T11:11:55.657Z,39.97
2023-07-08T11:14:56.581Z,40.12
2023-07-08T11:17:39.607Z,40.05
2023-07-08T11:20:26.037Z,40.01
2023-07-08T11:23:13.965Z,39.85
2023-07-08T11:25:45.069Z,40.29
2023-07-08T11:28:18.669Z,40.04
2023-07-08T11:30:51.281Z,40.25
2023-07-08T11:33:26.343Z,40.39
2023-07-08T11:35:59.232Z,40.87
2023-07-08T11:38:27.008Z,40.75
2023-07-08T11:40:58.507Z,40.82
2023-07-08T11:43:48.150Z,40.87
2023-07-08T11:46:26.659Z,40.85
2023-07-08T11:48:55.861Z,41.26
2023-07-08T11:51:32.576Z,41.35
2023-07-08T11:54:21.656Z,41.26
2023-07-08T11:57:05.341Z,41.12
2023-07-08T11:59:40.082Z,41.00
2023-07-08T12:02:21.109Z,41.01
2023-07-08T12:05:14.730Z,41.51
2023-07-08T12:07:46.258Z,41.75
2023-07-08T12:10:29.547Z,41.32
2023-07-08T12:12:56.406Z,41.47
2023-07-08T12:15:27.759Z,41.81
2023-07-08T12:18:22.625Z,41.74
2023-07-08T12:20:59.006Z,41.49
2023-07-08T12:23:28.988Z,41.96
2023-07-08T12:25:58.826Z,42.09
2023-07-08T12:28:26.676Z,42.10
2023-07-08T12:30:56.182Z,41.87
2023-07-08T12:33:33.194Z,42.38
2023-07-08T12:36:04.535Z,42.20
2023-07-08T12:38:46.538Z,41.29
2023-07-08T12:41:19.313Z,41.66
2023-07-08T12:43:47.287Z,41.85
2023-07-08T12:46:18.872Z,41.66
2023-07-08T12:48:45.986Z,41.78
2023-07-08T12:51:24.017Z,41.67
2023-07-08T12:53:53.677Z,42.10
2023-07-08T12:56:24.733Z,42.01
2023-07-08T12:58:58.797Z,42.23
2023-07-08T13:01:31.213Z,42.33
2023-07-08T13:04:04.248Z,42.34
2023-07-08T13:06:34.447Z,42.15
2023-07-08T13:09:14.494Z,42.14
2023-07-08T13:11:43.426Z,42.32
2023-07-08T13:14:11.144Z,42.41
2023-07-08T13:16:38.754Z,42.66
2023-07-08T13:19:06.079Z,42.28
2023-07-08T13:21:33.962Z,42.55
2023-07-08T13:24:02.559Z,42.32
2023-07-08T13:26:31.711Z,42.51
2023-07-08T13:29:11.198Z,42.98
2023-07-08T13:31:41.354Z,42.99
2023-07-08T13:34:17.620Z,42.98
2023-07-08T13:36:49.813Z,42.66
2023-07-08T13:39:27.804Z,42.64
2023-07-08T13:41:55.620Z,42.77
2023-07-08T13:44:23.110Z,42.67
2023-07-08T13:46:55.998Z,42.66
2023-07-08T13:49:52.103Z,43.05
2023-07-08T13:52:23.381Z,42.63
2023-07-08T13:55:08.543Z,43.05
2023-07-08T13:57:40.738Z,43.11
2023-07-08T14:00:09.417Z,43.05
2023-07-08T14:02:47.037Z,43.14
2023-07-08T14:05:16.261Z,43.09
2023-07-08T14:07:43.266Z,42.75
2023-07-08T14:10:14.660Z,42.75
2023-07-08T14:12:42.410Z,42.88
2023-07-08T14:15:10.564Z,43.02
2023-07-08T14:17:39.915Z,42.63
2023-07-08T14:20:15.914Z,42.54
2023-07-08T14:22:42.904Z,42.57
2023-07-08T14:25:12.577Z,42.46
2023-07-08T14:27:39.688Z,42.42
2023-07-08T14:30:11.194Z,42.63
2023-07-08T14:32:38.072Z,41.45
2023-07-08T14:35:19.553Z,42.18
2023-07-08T14:37:46.797Z,42.19
2023-07-08T14:40:25.756Z,41.87
2023-07-08T14:43:02.275Z,41.64
2023-07-08T14:45:35.220Z,41.83
2023-07-08T14:48:02.155Z,41.78
2023-07-08T14:50:30.901Z,41.83
2023-07-08T14:52:57.813Z,42.20
2023-07-08T14:55:25.644Z,42.14
2023-07-08T14:57:54.030Z,41.91
2023-07-08T15:00:21.109Z,41.97
2023-07-08T15:02:51.698Z,42.07
2023-07-08T15:05:28.751Z,41.74
2023-07-08T15:07:59.763Z,41.70
2023-07-08T15:10:30.081Z,42.13
2023-07-08T15:13:00.595Z,42.16
2023-07-08T15:15:40.754Z,42.03
2023-07-08T15:18:18.392Z,41.84
2023-07-08T15:20:45.371Z,41.42
2023-07-08T15:23:13.321Z,41.49
2023-07-08T15:25:46.970Z,41.55
2023-07-08T15:28:24.962Z,41.47
2023-07-08T15:30:53.136Z,41.47
2023-07-08T15:33:20.249Z,41.80
2023-07-08T15:35:47.266Z,41.98
2023-07-08T15:38:14.205Z,41.45
2023-07-08T15:40:41.419Z,41.44
2023-07-08T15:43:15.621Z,41.56
2023-07-08T15:45:44.196Z,41.61
2023-07-08T15:48:19.270Z,41.47
2023-07-08T15:50:46.179Z,41.84
2023-07-08T15:53:17.077Z,41.80
2023-07-08T15:55:47.837Z,41.80
2023-07-08T15:58:34.399Z,41.63
2023-07-08T16:01:03.787Z,41.17
2023-07-08T16:03:36.287Z,41.33
2023-07-08T16:06:03.374Z,41.31
2023-07-08T16:08:30.488Z,41.75
2023-07-08T16:11:05.637Z,41.25
2023-07-08T16:13:38.765Z,41.55
2023-07-08T16:16:06.334Z,41.85
2023-07-08T16:18:33.587Z,41.38
2023-07-08T16:21:00.728Z,41.62
2023-07-08T16:23:27.899Z,41.46
2023-07-08T16:25:56.039Z,41.42
2023-07-08T16:28:41.702Z,41.50
2023-07-08T16:31:12.634Z,41.43
2023-07-08T16:33:40.162Z,41.58
2023-07-08T16:36:18.787Z,41.44
2023-07-08T16:38:46.312Z,41.42
2023-07-08T16:41:15.875Z,41.27
2023-07-08T16:43:43.765Z,41.71
2023-07-08T16:46:13.362Z,41.53
2023-07-08T16:48:41.045Z,41.69
2023-07-08T16:51:20.969Z,41.37
2023-07-08T16:53:48.215Z,41.84
2023-07-08T16:56:20.479Z,41.57
2023-07-08T16:58:47.875Z,41.63
2023-07-08T17:01:27.052Z,41.56
2023-07-08T17:03:57.422Z,41.70
2023-07-08T17:06:25.655Z,41.91
2023-07-08T17:08:52.650Z,42.24
2023-07-08T17:11:19.653Z,42.01
2023-07-08T17:13:46.641Z,42.25
2023-07-08T17:16:28.311Z,42.18
2023-07-08T17:18:57.641Z,42.27
2023-07-08T17:21:25.170Z,41.81
2023-07-08T17:23:52.322Z,42.18
2023-07-08T17:26:19.560Z,42.12
2023-07-08T17:28:49.517Z,41.99
2023-07-08T17:33:58.800Z,42.56
2023-07-08T17:36:36.135Z,42.58
2023-07-08T17:39:07.908Z,42.06
2023-07-08T17:41:34.941Z,42.15
2023-07-08T17:44:02.078Z,42.36
2023-07-08T17:46:30.349Z,42.61
2023-07-08T17:48:59.437Z,42.80
2023-07-08T17:51:32.408Z,42.63
2023-07-08T17:53:59.530Z,42.67
2023-07-08T17:56:39.357Z,42.34
2023-07-08T17:59:15.009Z,42.88
2023-07-08T18:01:42.288Z,42.43
2023-07-08T18:04:09.291Z,42.67
2023-07-08T18:06:36.244Z,42.82
2023-07-08T18:09:03.374Z,42.70
2023-07-08T18:11:30.901Z,42.81
2023-07-08T18:13:58.149Z,42.67
2023-07-08T18:16:25.601Z,42.31
2023-07-08T18:18:52.660Z,42.69
2023-07-08T18:21:24.065Z,42.44
2023-07-08T18:23:54.024Z,42.11
2023-07-08T18:26:27.568Z,42.20
2023-07-08T18:28:55.136Z,42.68
2023-07-08T18:31:33.321Z,42.43
2023-07-08T18:34:03.327Z,42.65
2023-07-08T18:36:31.075Z,42.84
2023-07-08T18:38:59.175Z,42.40
2023-07-08T18:41:31.270Z,42.51
2023-07-08T18:43:59.026Z,42.83
2023-07-08T18:46:26.085Z,42.39
2023-07-08T18:48:53.380Z,42.58
2023-07-08T18:51:38.868Z,42.94
2023-07-08T18:54:06.367Z,42.76
2023-07-08T18:56:33.369Z,42.62
2023-07-08T18:59:00.320Z,42.78
2023-07-08T19:01:28.173Z,42.47
2023-07-08T19:03:58.575Z,42.90
2023-07-08T19:06:26.098Z,42.47
2023-07-08T19:08:53.037Z,42.91
2023-07-08T19:11:27.300Z,42.52
2023-07-08T19:13:54.593Z,42.77
2023-07-08T19:16:22.646Z,42.46
2023-07-08T19:18:51.430Z,42.44
2023-07-08T19:21:26.075Z,42.44
2023-07-08T19:23:56.129Z,42.91
2023-07-08T19:26:27.024Z,42.98
2023-07-08T19:28:56.780Z,42.68
2023-07-08T19:31:34.308Z,42.55
2023-07-08T19:34:05.848Z,43.01
2023-07-08T19:36:34.259Z,42.64
2023-07-08T19:39:02.241Z,43.05
2023-07-08T19:41:37.882Z,42.91
2023-07-08T19:44:26.398Z,42.15
2023-07-08T19:46:53.488Z,42.46
2023-07-08T19:49:20.611Z,42.47
2023-07-08T19:51:47.587Z,42.78
2023-07-08T19:54:14.646Z,42.75
2023-07-08T19:56:41.550Z,42.58
2023-07-08T19:59:16.210Z,42.43
2023-07-08T20:01:43.266Z,42.49
2023-07-08T20:04:16.887Z,42.66
2023-07-08T20:06:45.179Z,42.44
2023-07-08T20:09:15.780Z,42.82
2023-07-08T20:11:43.482Z,42.53
2023-07-08T20:14:10.543Z,42.78
2023-07-08T20:16:39.296Z,42.89
2023-07-08T20:19:06.201Z,42.51
2023-07-08T20:21:33.071Z,42.40
2023-07-08T20:23:59.986Z,42.32
2023-07-08T20:26:38.056Z,42.54
2023-07-08T20:29:07.318Z,42.60
2023-07-08T20:31:34.567Z,42.26
2023-07-08T20:34:01.676Z,42.68
2023-07-08T20:36:29.777Z,42.77
2023-07-08T20:38:56.964Z,42.59
2023-07-08T20:41:24.045Z,42.65
2023-07-08T20:43:51.223Z,42.36
2023-07-08T20:46:28.374Z,42.23
2023-07-08T20:48:59.264Z,42.76
2023-07-08T20:51:26.282Z,42.24
2023-07-08T20:53:54.903Z,42.50
2023-07-08T20:56:30.842Z,42.26
2023-07-08T20:58:58.464Z,42.42
2023-07-08T21:01:27.314Z,42.55
2023-07-08T21:03:54.367Z,42.38
2023-07-08T21:06:26.854Z,42.84
2023-07-08T21:08:54.521Z,42.70
2023-07-08T21:11:21.675Z,42.74
2023-07-08T21:13:49.145Z,42.74
2023-07-08T21:16:23.916Z,42.80
2023-07-08T21:18:53.704Z,42.50
2023-07-08T21:21:22.271Z,42.78
2023-07-08T21:23:49.909Z,42.59
2023-07-08T21:26:24.937Z,42.80
2023-07-08T21:28:56.401Z,42.75
2023-07-08T21:31:23.429Z,42.05
2023-07-08T21:33:50.501Z,42.51
2023-07-08T21:36:36.227Z,42.41
2023-07-08T21:39:18.837Z,42.52
2023-07-08T21:41:45.821Z,42.60
2023-07-08T21:44:17.080Z,42.72
2023-07-08T21:46:44.258Z,42.04
2023-07-08T21:49:11.277Z,42.31
2023-07-08T21:51:38.367Z,42.52
2023-07-08T21:54:06.287Z,42.71
2023-07-08T21:56:33.486Z,43.09
2023-07-08T21:59:00.520Z,43.38
2023-07-08T22:01:35.177Z,43.23
2023-07-08T22:04:02.739Z,43.16
2023-07-08T22:06:29.729Z,43.64
2023-07-08T22:08:56.866Z,43.45
2023-07-08T22:11:35.619Z,43.78
2023-07-08T22:14:04.273Z,43.90
2023-07-08T22:16:33.867Z,43.84
2023-07-08T22:19:02.037Z,43.58
2023-07-08T22:21:37.184Z,43.97
2023-07-08T22:24:10.191Z,43.61
2023-07-08T22:26:45.947Z,43.87
2023-07-08T22:29:13.104Z,43.98
2023-07-08T22:31:43.882Z,43.93
2023-07-08T22:34:15.919Z,44.07
2023-07-08T22:36:43.251Z,43.85
2023-07-08T22:39:11.989Z,43.97
2023-07-08T22:41:49.208Z,43.73
2023-07-08T22:44:19.995Z,43.99
2023-07-08T22:46:47.924Z,43.62
2023-07-08T22:49:24.460Z,44.11
2023-07-08T22:51:58.105Z,44.25
2023-07-08T22:54:26.223Z,43.80
2023-07-08T22:56:53.150Z,43.75
2023-07-08T22:59:19.982Z,44.40
2023-07-08T23:01:46.840Z,44.01
2023-07-08T23:04:13.816Z,44.29
2023-07-08T23:06:44.208Z,44.08
2023-07-08T23:09:16.567Z,44.05
2023-07-08T23:11:44.193Z,44.25
2023-07-08T23:14:11.995Z,43.97
2023-07-08T23:16:39.301Z,44.33
2023-07-08T23:19:07.826Z,44.41
2023-07-08T23:21:34.759Z,44.35
2023-07-08T23:24:01.626Z,44.19
2023-07-08T23:26:41.196Z,43.85
2023-07-08T23:29:18.797Z,43.94
2023-07-08T23:31:46.469Z,44.41
2023-07-08T23:34:13.475Z,44.38
2023-07-08T23:36:47.872Z,44.03
2023-07-08T23:39:28.202Z,44.49
2023-07-08T23:41:56.523Z,44.43
2023-07-08T23:44:28.192Z,44.42
2023-07-08T23:46:58.301Z,43.52
2023-07-08T23:49:31.486Z,43.91
2023-07-08T23:52:00.689Z,43.93
2023-07-08T23:54:36.963Z,44.34
2023-07-08T23:57:13.216Z,44.10
2023-07-08T23:59:51.317Z,44.08
